Time;durP1;ratioP1;P1;durP2;ratioP2;P2;SDS_P1;SDS_P2;PMS_P1;PMS_P2;Temp;Humidity;BMP_temperature;BMP_pressure;BME280_temperature;BME280_humidity;BME280_pressure;Samples;Min_cycle;Max_cycle;Signal;HPM_P1;HPM_P2
2022/01/02 00:02:41;;;;;;;30.33;4.35;;;;;;;19.27;46.30;99984.63;3981025;32;15025453;-71
2022/01/02 00:05:10;;;;;;;24.10;3.50;;;;;;;19.33;46.53;99979.72;4428904;32;20064;-71
2022/01/02 00:07:45;;;;;;;23.58;3.03;;;;;;;19.30;46.53;99977.87;4427692;32;20041;-71
2022/01/02 00:10:12;;;;;;;32.05;4.32;;;;;;;19.28;46.51;99974.75;4427703;32;20432;-71
2022/01/02 00:12:49;;;;;;;32.50;3.90;;;;;;;19.08;47.04;99978.59;4428524;32;20068;-71
2022/01/02 00:15:18;;;;;;;22.67;3.53;;;;;;;19.12;47.03;99978.34;4430084;32;20581;-71
2022/01/02 00:17:45;;;;;;;29.37;4.12;;;;;;;18.88;47.61;99956.00;4429442;32;20075;-71
2022/01/02 00:20:13;;;;;;;30.27;4.53;;;;;;;18.95;47.41;99966.09;4431055;32;20397;-71
2022/01/02 00:22:41;;;;;;;23.12;3.60;;;;;;;19.01;47.41;99944.88;4430871;32;20167;-71
2022/01/02 00:25:23;;;;;;;31.50;4.45;;;;;;;18.88;47.42;99949.50;4429012;32;20026;-71
2022/01/02 00:27:49;;;;;;;30.08;4.15;;;;;;;18.90;47.42;99939.13;4430243;32;20422;-71
2022/01/02 00:30:16;;;;;;;31.50;3.78;;;;;;;19.02;47.43;99929.31;4426388;32;20407;-71
2022/01/02 00:32:44;;;;;;;25.45;4.03;;;;;;;18.96;47.47;99936.31;4431480;32;20505;-71
2022/01/02 00:35:10;;;;;;;22.87;3.83;;;;;;;18.75;47.94;99943.53;4431115;32;20066;-71
2022/01/02 00:37:36;;;;;;;25.77;3.90;;;;;;;18.66;48.00;99950.25;4429168;32;20104;-71
2022/01/02 00:40:03;;;;;;;32.90;4.45;;;;;;;18.47;48.40;99946.25;4428895;32;20765;-71
2022/01/02 00:42:35;;;;;;;20.00;3.03;;;;;;;18.85;47.75;99941.97;4429987;32;20100;-71
2022/01/02 00:45:07;;;;;;;28.90;4.37;;;;;;;18.99;47.45;99938.16;4425042;32;20097;-71
2022/01/02 00:47:43;;;;;;;35.55;4.47;;;;;;;18.93;47.42;99943.81;4432268;32;20084;-71
2022/01/02 00:52:49;;;;;;;27.33;4.30;;;;;;;19.49;46.79;99931.19;3982157;32;15024321;-71
2022/01/02 00:55:19;;;;;;;23.02;3.60;;;;;;;19.49;46.79;99931.19;4434081;32;20770;-71
2022/01/02 01:00:31;;;;;;;25.80;3.40;;;;;;;19.55;46.64;99925.50;3977172;32;15025245;-71
2022/01/02 01:02:59;;;;;;;22.73;4.18;;;;;;;19.55;46.64;99925.50;4435097;32;20072;-71
2022/01/02 01:05:29;;;;;;;36.60;4.40;;;;;;;19.27;46.96;99913.31;4435755;32;20041;-71
2022/01/02 01:07:57;;;;;;;31.92;4.60;;;;;;;19.20;47.19;99910.91;4428216;32;20069;-71
2022/01/02 01:10:25;;;;;;;32.70;4.32;;;;;;;18.98;47.83;99902.34;4435094;32;20140;-71
2022/01/02 01:12:54;;;;;;;34.03;5.05;;;;;;;19.26;47.22;99891.72;4431677;32;20037;-71
2022/01/02 01:15:22;;;;;;;29.17;4.53;;;;;;;19.37;46.92;99900.34;4433629;32;20069;-71
2022/01/02 01:17:49;;;;;;;37.75;4.43;;;;;;;19.51;46.70;99885.00;4435282;32;20038;-71
2022/01/02 01:20:15;;;;;;;37.67;5.18;;;;;;;19.32;46.95;99886.84;4433959;32;20069;-71
2022/01/02 01:22:42;;;;;;;31.87;4.90;;;;;;;19.33;46.87;99880.63;4435414;32;20421;-71
2022/01/02 01:25:16;;;;;;;30.83;5.78;;;;;;;19.45;46.95;99879.31;4435964;32;20537;-71
2022/01/02 01:27:44;;;;;;;31.48;4.62;;;;;;;19.13;47.46;99886.56;4435108;32;20097;-71
2022/01/02 01:30:11;;;;;;;36.05;5.87;;;;;;;19.16;47.55;99879.81;4433286;32;20048;-71
2022/01/02 01:32:37;;;;;;;33.60;4.50;;;;;;;19.22;47.51;99871.25;4432457;32;20113;-71
2022/01/02 01:35:05;;;;;;;29.67;4.85;;;;;;;19.09;47.54;99871.75;4433011;32;20069;-71
2022/01/02 01:37:31;;;;;;;29.58;5.85;;;;;;;19.18;47.54;99873.59;4434757;32;20219;-71
2022/01/02 01:39:57;;;;;;;31.90;4.15;;;;;;;19.01;47.81;99879.28;4431904;32;20375;-71
2022/01/02 01:42:34;;;;;;;30.83;4.62;;;;;;;19.14;47.30;99879.56;4436160;32;20496;-71
2022/01/02 01:47:44;;;;;;;35.63;5.15;;;;;;;19.87;46.33;99878.19;3980703;32;15021440;-70
2022/01/02 01:50:10;;;;;;;26.15;4.78;;;;;;;19.87;46.33;99878.19;4431569;32;20072;-70
2022/01/02 01:52:36;;;;;;;33.38;5.50;;;;;;;19.51;46.54;99859.31;4436713;32;20082;-71
2022/01/02 01:55:02;;;;;;;32.42;5.60;;;;;;;19.25;47.18;99858.81;4436772;32;20485;-71
2022/01/02 01:57:28;;;;;;;33.42;5.60;;;;;;;19.49;46.85;99870.50;4434196;32;20068;-71
2022/01/02 01:59:54;;;;;;;31.20;5.72;;;;;;;19.09;47.37;99863.22;4436645;32;20429;-71
2022/01/02 02:02:22;;;;;;;27.33;4.75;;;;;;;19.22;47.32;99865.56;4435788;32;20026;-71
2022/01/02 02:04:49;;;;;;;24.55;5.18;;;;;;;19.63;46.61;99875.91;4433575;32;20097;-71
2022/01/02 02:07:15;;;;;;;38.17;5.12;;;;;;;19.43;46.74;99864.00;4436912;32;20088;-71
2022/01/02 02:09:59;;;;;;;32.45;5.12;;;;;;;19.60;46.57;99871.25;4433229;32;20072;-71
2022/01/02 02:12:26;;;;;;;39.30;6.60;;;;;;;19.30;47.04;99869.47;4435515;32;20033;-71
2022/01/02 02:14:55;;;;;;;30.00;5.90;;;;;;;19.67;46.30;99869.94;4433121;32;20132;-71
2022/01/02 02:17:22;;;;;;;36.03;6.25;;;;;;;19.94;45.73;99854.81;4434769;32;20378;-71
2022/01/02 02:19:49;;;;;;;32.90;5.90;;;;;;;19.91;45.96;99863.66;4436712;32;20123;-71
2022/01/02 02:22:16;;;;;;;30.35;5.12;;;;;;;19.98;45.63;99861.03;4433128;32;20073;-71
2022/01/02 02:24:41;;;;;;;35.25;5.40;;;;;;;20.25;45.26;99848.75;4432104;32;20077;-71
2022/01/02 02:27:07;;;;;;;34.95;5.75;;;;;;;20.13;45.41;99840.75;4434584;32;20516;-70
2022/01/02 02:29:32;;;;;;;26.00;5.25;;;;;;;20.16;45.16;99854.78;4430380;32;20050;-71
2022/01/02 02:31:58;;;;;;;38.53;6.25;;;;;;;20.25;45.21;99857.31;4432904;32;20030;-71
2022/01/02 02:34:24;;;;;;;32.55;5.28;;;;;;;20.26;45.54;99860.94;4431762;32;20133;-71
2022/01/02 02:36:50;;;;;;;37.33;6.47;;;;;;;20.13;45.78;99867.25;4430401;32;20053;-71
2022/01/02 02:39:15;;;;;;;39.65;6.30;;;;;;;20.23;45.60;99862.00;4431575;32;20041;-71
2022/01/02 02:41:43;;;;;;;34.03;5.68;;;;;;;20.39;45.07;99858.28;4432278;32;20037;-71
2022/01/02 02:44:21;;;;;;;32.22;5.60;;;;;;;20.19;45.89;99850.09;4431902;32;20097;-71
2022/01/02 02:49:38;;;;;;;24.00;5.82;;;;;;;20.31;45.50;99848.72;4435433;32;20032;-71
2022/01/02 02:52:11;;;;;;;28.52;6.03;;;;;;;20.72;44.77;99838.09;4432347;32;20332;-71
2022/01/02 02:54:37;;;;;;;35.30;5.90;;;;;;;20.53;45.31;99842.88;4432233;32;20072;-70
2022/01/02 02:57:11;;;;;;;34.20;5.53;;;;;;;20.46;45.43;99832.78;4432152;32;20064;-71
2022/01/02 02:59:36;;;;;;;34.13;5.97;;;;;;;20.70;45.09;99826.41;4421591;32;20161;-71
2022/01/02 03:02:03;;;;;;;39.58;7.03;;;;;;;20.35;45.76;99821.44;4421548;32;20141;-70
2022/01/02 03:04:30;;;;;;;36.28;6.53;;;;;;;20.53;45.60;99817.94;4426960;32;20106;-71
2022/01/02 03:06:56;;;;;;;38.63;6.50;;;;;;;20.24;46.26;99812.13;4423331;32;20487;-71
2022/01/02 03:09:38;;;;;;;30.12;5.68;;;;;;;20.54;45.30;99810.13;4420854;32;20061;-71
2022/01/02 03:12:07;;;;;;;34.97;6.07;;;;;;;20.55;45.61;99809.59;4423571;32;20286;-71
2022/01/02 03:14:33;;;;;;;38.38;6.20;;;;;;;20.87;45.23;99807.84;4423970;32;20041;-71
2022/01/02 03:16:59;;;;;;;32.90;5.95;;;;;;;20.87;44.97;99807.84;4422732;32;20064;-71
2022/01/02 03:19:26;;;;;;;31.98;5.87;;;;;;;20.98;44.75;99792.66;4425022;32;20038;-71
2022/01/02 03:21:51;;;;;;;34.47;6.28;;;;;;;20.67;45.03;99787.44;4425036;32;20140;-71
2022/01/02 03:24:17;;;;;;;46.20;7.53;;;;;;;20.42;45.91;99782.94;4422516;32;20080;-71
2022/01/02 03:26:43;;;;;;;35.05;5.18;;;;;;;20.48;45.73;99775.88;4421917;32;20109;-71
2022/01/02 03:29:09;;;;;;;35.40;5.97;;;;;;;20.68;45.40;99772.59;4424569;32;20049;-71
2022/01/02 03:31:34;;;;;;;36.13;5.57;;;;;;;20.79;45.11;99774.59;4419576;32;20427;-71
2022/01/02 03:34:00;;;;;;;45.92;6.30;;;;;;;20.74;45.35;99769.72;4426138;32;20532;-71
2022/01/02 03:36:26;;;;;;;37.03;6.10;;;;;;;20.81;45.11;99758.47;4423379;32;20038;-71
2022/01/02 03:38:51;;;;;;;34.60;6.32;;;;;;;20.93;44.85;99762.78;4425157;32;20034;-71
2022/01/02 03:41:17;;;;;;;35.10;5.85;;;;;;;20.51;45.81;99763.38;4417710;32;20034;-71
2022/01/02 03:43:43;;;;;;;31.80;6.87;;;;;;;20.41;46.11;99762.16;4423895;32;20517;-70
2022/01/02 03:46:08;;;;;;;35.33;5.00;;;;;;;20.49;45.96;99754.56;4422678;32;20079;-70
2022/01/02 03:48:34;;;;;;;39.40;7.62;;;;;;;20.59;45.99;99746.44;4422561;32;20042;-70
2022/01/02 03:51:00;;;;;;;39.85;5.15;;;;;;;20.51;46.35;99751.16;4421891;32;20130;-70
2022/01/02 03:53:26;;;;;;;35.10;5.87;;;;;;;20.54;46.34;99739.47;4421983;32;20528;-70
2022/01/02 03:55:52;;;;;;;36.83;6.28;;;;;;;20.53;46.23;99737.13;4425281;32;20342;-70
2022/01/02 03:58:19;;;;;;;41.67;6.65;;;;;;;20.60;46.28;99745.91;4423907;32;20042;-69
2022/01/02 04:00:46;;;;;;;37.05;6.78;;;;;;;20.56;46.42;99738.94;4417478;32;20585;-69
2022/01/02 04:03:11;;;;;;;38.08;6.68;;;;;;;20.37;46.92;99735.19;4422482;32;20078;-69
2022/01/02 04:05:38;;;;;;;31.00;6.05;;;;;;;20.44;46.76;99734.59;4424383;32;20049;-69
2022/01/02 04:08:05;;;;;;;41.85;6.60;;;;;;;20.36;46.95;99733.59;4423473;32;20093;-69
2022/01/02 04:10:30;;;;;;;35.30;5.95;;;;;;;20.13;47.85;99726.50;4421194;32;20044;-69
2022/01/02 04:13:00;;;;;;;31.55;5.65;;;;;;;20.24;47.56;99714.97;4422556;32;20120;-68
2022/01/02 04:15:26;;;;;;;34.70;5.37;;;;;;;20.14;48.03;99713.75;4420643;32;20118;-68
2022/01/02 04:17:52;;;;;;;34.67;6.78;;;;;;;20.03;48.14;99708.84;4422706;32;20060;-68
2022/01/02 04:20:18;;;;;;;37.83;6.22;;;;;;;19.86;48.78;99704.56;4419803;32;20045;-68
2022/01/02 04:22:47;;;;;;;41.75;6.85;;;;;;;19.79;48.97;99703.81;4422871;32;20068;-68
2022/01/02 04:25:14;;;;;;;32.40;5.53;;;;;;;20.02;48.66;99698.75;4419018;32;20068;-68
2022/01/02 04:27:40;;;;;;;34.88;5.15;;;;;;;20.02;48.75;99692.25;4420655;32;20524;-68
2022/01/02 04:30:09;;;;;;;36.65;6.05;;;;;;;20.02;48.43;99692.25;4418538;32;20067;-68
2022/01/02 04:32:35;;;;;;;34.65;5.18;;;;;;;20.02;48.88;99687.31;4422964;32;20056;-68
2022/01/02 04:35:02;;;;;;;22.52;4.37;;;;;;;19.61;49.20;99692.97;4421676;32;20034;-68
2022/01/02 04:37:30;;;;;;;34.65;4.35;;;;;;;19.55;49.16;99686.53;4420191;32;20026;-69
2022/01/02 04:39:56;;;;;;;24.73;4.10;;;;;;;19.17;48.81;99676.00;4424716;32;20045;-69
2022/01/02 04:42:22;;;;;;;23.05;4.10;;;;;;;18.95;49.76;99673.22;4422827;32;20134;-69
2022/01/02 04:44:48;;;;;;;24.85;4.18;;;;;;;18.79;50.24;99668.34;4421690;32;20068;-71
2022/01/02 04:47:13;;;;;;;15.00;2.83;;;;;;;18.70;50.21;99667.81;4421623;32;20632;-71
2022/01/02 04:49:39;;;;;;;38.20;4.00;;;;;;;18.69;49.36;99664.22;4422774;32;20381;-71
2022/01/02 04:52:05;;;;;;;15.85;2.40;;;;;;;18.49;50.13;99652.28;4421824;32;20022;-69
2022/01/02 04:54:30;;;;;;;15.07;2.70;;;;;;;18.37;50.34;99647.91;4422488;32;20097;-69
2022/01/02 04:56:56;;;;;;;15.15;2.20;;;;;;;18.43;49.49;99635.22;4420203;32;20053;-70
2022/01/02 04:59:22;;;;;;;18.08;2.65;;;;;;;18.30;50.07;99643.47;4423386;32;20063;-70
2022/01/02 05:01:47;;;;;;;12.85;1.80;;;;;;;18.35;49.99;99630.53;4421634;32;20117;-71
2022/01/02 05:04:13;;;;;;;14.98;2.65;;;;;;;18.41;49.77;99628.50;4423712;32;20029;-70
2022/01/02 05:06:39;;;;;;;13.95;2.03;;;;;;;18.15;50.09;99634.41;4420346;32;20026;-69
2022/01/02 05:09:07;;;;;;;14.23;2.10;;;;;;;18.29;49.77;99626.91;4422720;32;20110;-69
2022/01/02 05:11:32;;;;;;;13.00;2.00;;;;;;;18.44;49.62;99624.59;4420716;32;20100;-68
2022/01/02 05:13:58;;;;;;;10.73;1.87;;;;;;;18.42;49.31;99621.50;4421311;32;20069;-69
2022/01/02 05:16:24;;;;;;;13.15;2.00;;;;;;;18.42;49.60;99618.63;4425511;32;20064;-69
2022/01/02 05:18:50;;;;;;;11.52;1.50;;;;;;;18.54;49.55;99623.81;4423113;32;20424;-70
2022/01/02 05:21:16;;;;;;;12.00;1.87;;;;;;;18.58;49.49;99615.00;4420784;32;20033;-70
2022/01/02 05:23:42;;;;;;;10.85;1.60;;;;;;;18.56;49.37;99615.50;4420980;32;20616;-70
2022/01/02 05:26:08;;;;;;;16.37;1.95;;;;;;;18.62;49.39;99624.06;4422141;32;20089;-70
2022/01/02 05:28:34;;;;;;;12.30;2.15;;;;;;;18.37;49.57;99634.44;4421141;32;20079;-70
2022/01/02 05:31:00;;;;;;;9.20;1.95;;;;;;;18.85;49.13;99626.34;4422270;32;20077;-70
2022/01/02 05:33:26;;;;;;;13.18;1.70;;;;;;;18.90;48.86;99628.37;4420056;32;20072;-70
2022/01/02 05:35:53;;;;;;;11.43;2.37;;;;;;;18.98;49.03;99629.41;4421868;32;20135;-70
2022/01/02 05:38:19;;;;;;;13.43;1.92;;;;;;;18.92;49.07;99625.81;4421859;32;20084;-70
2022/01/02 05:40:44;;;;;;;12.68;1.67;;;;;;;19.18;48.66;99631.16;4417959;32;20419;-70
2022/01/02 05:43:10;;;;;;;11.00;1.90;;;;;;;19.33;48.27;99632.41;4423450;32;20557;-70
2022/01/02 05:45:36;;;;;;;14.85;1.98;;;;;;;19.32;48.40;99633.72;4419392;32;20046;-70
2022/01/02 05:48:02;;;;;;;11.27;1.42;;;;;;;19.32;48.34;99632.94;4422100;32;20487;-70
2022/01/02 05:50:28;;;;;;;16.27;1.92;;;;;;;19.40;48.56;99631.09;4418650;32;20038;-70
2022/01/02 05:52:54;;;;;;;12.15;1.80;;;;;;;19.40;48.25;99633.94;4422255;32;20088;-70
2022/01/02 05:55:20;;;;;;;10.07;2.30;;;;;;;19.41;48.21;99641.19;4422923;32;20037;-70
2022/01/02 05:57:46;;;;;;;15.63;2.33;;;;;;;19.54;48.45;99642.19;4422209;32;20436;-70
2022/01/02 06:00:12;;;;;;;24.80;2.60;;;;;;;19.73;48.21;99645.97;4420135;32;20082;-70
2022/01/02 06:02:37;;;;;;;13.62;1.90;;;;;;;19.64;48.12;99645.50;4420469;32;20081;-68
2022/01/02 06:05:06;;;;;;;14.45;1.40;;;;;;;19.54;48.26;99649.94;4424378;32;20080;-69
2022/01/02 06:07:33;;;;;;;6.80;1.10;;;;;;;19.59;48.20;99640.59;4424817;32;20340;-70
2022/01/02 06:10:02;;;;;;;8.35;1.08;;;;;;;19.61;47.78;99643.72;4421428;32;20085;-70
2022/01/02 06:12:27;;;;;;;8.20;1.70;;;;;;;19.53;48.33;99629.22;4421704;32;20060;-70
2022/01/02 06:14:53;;;;;;;12.48;1.80;;;;;;;19.08;48.07;99632.72;4420785;32;20046;-70
2022/01/02 06:17:18;;;;;;;6.07;0.88;;;;;;;19.21;47.91;99630.13;4420159;32;20112;-70
2022/01/02 06:19:44;;;;;;;9.73;0.98;;;;;;;18.91;47.45;99635.66;4419872;32;20045;-70
2022/01/02 06:22:10;;;;;;;9.38;1.00;;;;;;;18.82;48.01;99638.00;4422286;32;20056;-70
2022/01/02 06:24:35;;;;;;;12.93;1.50;;;;;;;18.90;47.95;99636.19;4423941;32;20060;-70
2022/01/02 06:27:01;;;;;;;6.82;1.42;;;;;;;18.84;48.42;99638.28;4421654;32;20095;-70
2022/01/02 06:29:26;;;;;;;5.70;0.90;;;;;;;18.81;48.33;99648.63;4420798;32;20077;-70
2022/01/02 06:31:53;;;;;;;8.27;1.12;;;;;;;18.76;48.17;99643.72;4421207;32;20144;-70
2022/01/02 06:34:19;;;;;;;7.70;1.30;;;;;;;18.81;48.21;99636.47;4424686;32;20063;-70
2022/01/02 06:36:45;;;;;;;5.15;0.60;;;;;;;18.83;48.20;99634.63;4419244;32;20038;-70
2022/01/02 06:39:11;;;;;;;10.07;1.00;;;;;;;18.55;48.31;99641.66;4425100;32;20046;-70
2022/01/02 06:41:38;;;;;;;12.55;1.60;;;;;;;18.50;48.88;99628.97;4425853;32;20081;-70
2022/01/02 06:44:04;;;;;;;9.07;1.40;;;;;;;18.53;48.61;99625.09;4423702;32;20128;-71
2022/01/02 06:46:29;;;;;;;8.60;1.52;;;;;;;18.56;48.83;99624.06;4418805;32;20119;-71
2022/01/02 06:48:55;;;;;;;5.05;0.93;;;;;;;18.53;48.72;99627.19;4422518;32;20030;-70
2022/01/02 06:51:20;;;;;;;5.47;0.60;;;;;;;18.52;48.62;99631.31;4423205;32;20073;-70
2022/01/02 06:53:46;;;;;;;6.80;0.80;;;;;;;18.46;48.49;99634.19;4426218;32;20033;-70
2022/01/02 06:56:12;;;;;;;4.30;0.80;;;;;;;18.42;48.49;99639.38;4425621;32;20845;-70
2022/01/02 06:58:39;;;;;;;4.50;0.80;;;;;;;18.51;48.29;99636.25;4422384;32;20030;-70
2022/01/02 07:01:05;;;;;;;3.03;0.85;;;;;;;18.48;48.40;99631.59;4420945;32;20060;-70
2022/01/02 07:03:33;;;;;;;4.20;0.60;;;;;;;18.59;48.13;99627.97;4425743;32;20084;-70
2022/01/02 07:06:00;;;;;;;9.00;1.05;;;;;;;18.54;48.13;99645.81;4424081;32;20088;-70
2022/01/02 07:08:27;;;;;;;2.78;0.60;;;;;;;18.55;48.24;99647.38;4418880;32;20434;-70
2022/01/02 07:10:54;;;;;;;3.83;0.60;;;;;;;18.42;48.28;99635.72;4421145;32;20049;-70
2022/01/02 07:13:20;;;;;;;4.80;0.80;;;;;;;18.47;47.92;99637.81;4422201;32;20022;-70
2022/01/02 07:15:46;;;;;;;5.87;0.80;;;;;;;18.21;48.27;99634.41;4419710;32;20106;-70
2022/01/02 07:18:11;;;;;;;4.53;0.60;;;;;;;18.29;47.78;99641.16;4422376;32;20030;-70
2022/01/02 07:20:37;;;;;;;3.80;0.65;;;;;;;18.35;47.76;99644.78;4424362;32;20534;-70
2022/01/02 07:23:03;;;;;;;3.37;0.80;;;;;;;18.21;47.77;99638.03;4425709;32;20391;-70
2022/01/02 07:25:28;;;;;;;6.03;1.40;;;;;;;18.15;47.96;99647.88;4423502;32;20098;-70
2022/01/02 07:27:54;;;;;;;5.53;0.60;;;;;;;18.00;48.01;99633.88;4421391;32;21512;-70
2022/01/02 07:30:20;;;;;;;8.32;1.17;;;;;;;17.84;48.54;99641.13;4419640;32;20443;-70
2022/01/02 07:32:46;;;;;;;4.55;0.90;;;;;;;17.91;48.22;99630.53;4425485;32;20033;-70
2022/01/02 07:35:12;;;;;;;4.72;0.45;;;;;;;17.94;48.44;99635.19;4423271;32;20098;-70
2022/01/02 07:37:37;;;;;;;2.60;0.50;;;;;;;17.87;48.50;99642.94;4426237;32;20147;-70
2022/01/02 07:40:04;;;;;;;3.42;0.47;;;;;;;17.48;48.97;99636.38;4421727;32;20585;-70
2022/01/02 07:42:31;;;;;;;4.75;0.77;;;;;;;17.92;48.28;99640.59;4419969;32;20034;-69
2022/01/02 07:44:58;;;;;;;3.83;0.50;;;;;;;17.50;49.00;99642.31;4419263;32;20151;-69
2022/01/02 07:47:24;;;;;;;4.80;0.68;;;;;;;17.41;48.72;99642.53;4415186;32;20060;-69
2022/01/02 07:49:50;;;;;;;5.80;0.95;;;;;;;17.59;48.52;99644.16;4422145;32;20029;-69
2022/01/02 07:52:16;;;;;;;4.97;0.73;;;;;;;17.41;48.74;99639.69;4420348;32;20068;-69
2022/01/02 07:54:42;;;;;;;6.37;0.88;;;;;;;17.02;49.63;99643.63;4419336;32;20037;-69
2022/01/02 07:57:08;;;;;;;5.12;0.60;;;;;;;17.32;48.54;99654.12;4420275;32;20030;-69
2022/01/02 07:59:34;;;;;;;10.60;1.42;;;;;;;17.26;48.74;99646.84;4422650;32;20030;-69
2022/01/02 08:01:59;;;;;;;2.45;0.40;;;;;;;17.47;48.13;99657.56;4423221;32;20038;-69
2022/01/02 08:04:25;;;;;;;5.75;0.50;;;;;;;17.59;47.76;99647.78;4417275;32;20318;-69
2022/01/02 08:06:51;;;;;;;6.25;0.90;;;;;;;17.58;47.60;99657.59;4423388;32;20112;-69
2022/01/02 08:09:17;;;;;;;4.32;0.62;;;;;;;17.85;47.29;99653.25;4422977;32;20489;-69
2022/01/02 08:11:42;;;;;;;4.65;0.40;;;;;;;17.73;47.64;99655.31;4421563;32;20375;-69
2022/01/02 08:14:08;;;;;;;8.55;0.77;;;;;;;17.77;47.31;99661.53;4422501;32;20049;-69
2022/01/02 08:16:34;;;;;;;5.53;0.77;;;;;;;17.69;47.61;99671.88;4417541;32;20743;-69
2022/01/02 08:19:02;;;;;;;6.72;0.80;;;;;;;17.80;47.30;99665.44;4422436;32;20564;-69
2022/01/02 08:21:27;;;;;;;6.25;0.52;;;;;;;17.61;47.55;99667.16;4420200;32;20163;-69
2022/01/02 08:23:53;;;;;;;12.77;0.88;;;;;;;17.69;47.70;99666.16;4424400;32;20037;-69
2022/01/02 08:26:19;;;;;;;5.87;0.65;;;;;;;17.49;47.84;99657.06;4422236;32;21250;-69
2022/01/02 08:28:44;;;;;;;5.28;0.50;;;;;;;17.58;47.70;99662.53;4421052;32;20077;-69
2022/01/02 08:31:10;;;;;;;4.37;0.68;;;;;;;17.48;47.88;99664.03;4419209;32;20115;-69
2022/01/02 08:33:36;;;;;;;9.57;0.70;;;;;;;17.46;48.10;99664.53;4422511;32;20033;-69
2022/01/02 08:36:02;;;;;;;3.85;0.62;;;;;;;17.34;48.36;99662.91;4422782;32;20034;-69
2022/01/02 08:38:28;;;;;;;4.57;1.33;;;;;;;17.00;49.04;99655.50;4421561;32;21247;-69
2022/01/02 08:40:54;;;;;;;4.53;0.60;;;;;;;17.15;48.89;99663.88;4421822;32;20057;-69
2022/01/02 08:43:20;;;;;;;5.40;0.70;;;;;;;17.13;49.01;99672.91;4418875;32;20501;-69
2022/01/02 08:45:46;;;;;;;4.97;0.60;;;;;;;17.31;48.84;99671.69;4420187;32;20350;-68
2022/01/02 08:48:11;;;;;;;2.65;0.40;;;;;;;16.93;49.44;99675.88;4419721;32;20121;-68
2022/01/02 08:50:38;;;;;;;6.93;0.73;;;;;;;17.30;48.91;99670.91;4421349;32;20085;-68
2022/01/02 08:53:03;;;;;;;6.43;0.98;;;;;;;17.04;49.70;99675.94;4422782;32;20501;-68
2022/01/02 08:55:30;;;;;;;2.53;0.50;;;;;;;16.87;49.80;99672.22;4421809;32;20445;-68
2022/01/02 08:57:55;;;;;;;5.93;0.50;;;;;;;16.90;50.28;99659.06;4421540;32;20055;-68
2022/01/02 09:00:23;;;;;;;4.00;0.45;;;;;;;16.70;50.30;99651.47;4420869;32;20061;-68
2022/01/02 09:02:48;;;;;;;5.87;0.60;;;;;;;17.15;49.97;99644.72;4422063;32;20093;-69
2022/01/02 09:05:14;;;;;;;11.48;1.27;;;;;;;16.91;50.21;99650.03;4422585;32;20095;-68
2022/01/02 09:07:40;;;;;;;6.22;1.55;;;;;;;16.86;50.31;99652.84;4423658;32;20098;-68
2022/01/02 09:10:06;;;;;;;5.68;0.45;;;;;;;16.72;50.55;99657.41;4420548;32;20144;-68
2022/01/02 09:12:32;;;;;;;6.28;1.20;;;;;;;17.02;50.44;99660.69;4418794;32;20098;-67
2022/01/02 09:14:57;;;;;;;5.32;0.80;;;;;;;16.76;50.62;99657.97;4423282;32;20433;-67
2022/01/02 09:17:23;;;;;;;6.43;0.95;;;;;;;16.88;50.54;99662.41;4419311;32;20100;-67
2022/01/02 09:19:51;;;;;;;7.03;1.00;;;;;;;17.06;50.19;99662.00;4419101;32;20030;-67
2022/01/02 09:22:17;;;;;;;3.10;0.60;;;;;;;16.84;50.68;99670.41;4422202;32;20033;-67
2022/01/02 09:24:42;;;;;;;5.28;0.93;;;;;;;17.01;50.20;99662.75;4420880;32;20037;-67
2022/01/02 09:27:08;;;;;;;4.28;0.50;;;;;;;16.95;50.09;99652.63;4421858;32;20060;-67
2022/01/02 09:29:35;;;;;;;5.97;1.00;;;;;;;16.67;50.58;99658.16;4420610;32;20126;-67
2022/01/02 09:32:02;;;;;;;6.18;1.10;;;;;;;16.92;50.16;99667.84;4421275;32;20084;-67
2022/01/02 09:34:27;;;;;;;8.15;1.58;;;;;;;16.98;50.12;99660.94;4423920;32;20456;-67
2022/01/02 09:36:53;;;;;;;6.12;0.80;;;;;;;16.96;49.92;99669.19;4419224;32;20582;-67
2022/01/02 09:39:19;;;;;;;6.87;0.80;;;;;;;16.88;50.19;99673.00;4419087;32;20034;-66
2022/01/02 09:41:44;;;;;;;7.72;1.02;;;;;;;17.32;49.32;99659.81;4419873;32;20099;-66
2022/01/02 09:44:10;;;;;;;7.75;1.35;;;;;;;17.14;49.54;99654.56;4420601;32;20039;-66
2022/01/02 09:46:38;;;;;;;9.30;1.58;;;;;;;17.47;48.56;99648.25;4421429;32;20062;-67
2022/01/02 09:49:05;;;;;;;9.18;1.08;;;;;;;17.68;48.32;99656.06;4421616;32;20041;-67
2022/01/02 09:51:31;;;;;;;7.97;1.20;;;;;;;17.68;48.17;99661.75;4420220;32;20038;-67
2022/01/02 09:53:57;;;;;;;8.30;1.25;;;;;;;17.55;48.19;99664.31;4422095;32;20191;-67
2022/01/02 09:56:23;;;;;;;8.05;1.27;;;;;;;18.19;47.23;99666.25;4422432;32;20077;-67
2022/01/02 09:58:49;;;;;;;7.78;1.58;;;;;;;18.22;46.99;99665.22;4418218;32;20064;-67
2022/01/02 10:01:18;;;;;;;7.82;1.08;;;;;;;18.31;46.79;99667.06;4415778;32;20065;-67
2022/01/02 10:03:46;;;;;;;12.52;1.98;;;;;;;18.91;45.67;99655.63;4420372;32;20078;-67
2022/01/02 10:06:13;;;;;;;10.35;1.60;;;;;;;18.55;45.91;99664.47;4421565;32;20021;-67
2022/01/02 10:08:40;;;;;;;13.07;2.28;;;;;;;18.55;45.52;99670.16;4421727;32;20030;-67
2022/01/02 10:11:15;;;;;;;9.77;2.00;;;;;;;18.51;45.60;99670.44;4423394;32;20519;-67
2022/01/02 10:21:56;;;;;;;12.07;2.15;;;;;;;19.69;42.81;99667.53;3979976;32;15022980;-68
2022/01/02 10:24:27;;;;;;;10.32;1.17;;;;;;;19.32;43.31;99661.47;4434309;32;20033;-68
2022/01/02 10:32:41;;;;;;;14.70;2.67;;;;;;;19.91;42.00;99663.78;3977684;32;15021592;-69
2022/01/02 10:37:49;;;;;;;8.65;1.77;;;;;;;19.90;41.80;99663.00;3985087;32;15232853;-69
2022/01/02 10:43:07;;;;;;;13.43;1.73;;;;;;;19.91;41.97;99663.78;3979773;32;15022866;-69
2022/01/02 10:45:40;;;;;;;8.23;1.40;;;;;;;19.91;41.97;99663.78;4434446;32;20037;-69
2022/01/02 10:48:10;;;;;;;15.65;1.45;;;;;;;19.85;41.97;99649.53;4433721;32;20104;-69
2022/01/02 10:50:38;;;;;;;8.82;1.52;;;;;;;19.76;42.06;99661.28;4436108;32;20073;-69
2022/01/02 10:53:13;;;;;;;11.88;1.60;;;;;;;19.72;42.07;99652.19;4435636;32;20038;-69
2022/01/02 10:55:44;;;;;;;11.82;1.70;;;;;;;19.45;42.63;99653.09;4435023;32;20071;-69
2022/01/02 10:58:11;;;;;;;8.27;1.45;;;;;;;19.31;42.92;99652.16;4434601;32;20081;-69
2022/01/02 11:00:38;;;;;;;10.90;1.70;;;;;;;19.36;43.06;99653.44;4432093;32;20069;-69
2022/01/02 11:03:06;;;;;;;8.38;1.27;;;;;;;19.00;43.72;99638.22;4432736;32;20077;-69
2022/01/02 11:05:33;;;;;;;7.07;1.27;;;;;;;18.91;44.33;99644.22;4436094;32;20037;-69
2022/01/02 11:08:00;;;;;;;11.52;2.00;;;;;;;18.79;44.45;99633.34;4432396;32;20077;-69
2022/01/02 11:10:28;;;;;;;16.48;2.10;;;;;;;18.47;45.12;99641.41;4433665;32;20060;-69
2022/01/02 11:12:55;;;;;;;7.55;1.20;;;;;;;18.71;44.58;99638.81;4432612;32;20497;-69
2022/01/02 11:15:23;;;;;;;12.18;1.55;;;;;;;18.46;44.73;99634.19;4432207;32;20049;-69
2022/01/02 11:17:50;;;;;;;7.72;1.25;;;;;;;18.38;44.91;99664.47;4432805;32;20073;-69
2022/01/02 11:20:20;;;;;;;8.73;1.30;;;;;;;18.44;44.87;99633.91;4431384;32;20046;-69
2022/01/02 11:23:10;;;;;;;12.05;1.70;;;;;;;18.41;44.90;99620.69;4426834;32;20066;-70
2022/01/02 11:28:32;;;;;;;8.00;1.40;;;;;;;19.31;43.34;99612.22;3983886;32;15023676;-71
2022/01/02 11:30:58;;;;;;;12.85;1.87;;;;;;;19.31;43.34;99612.22;4428003;32;20038;-71
2022/01/02 11:33:42;;;;;;;9.88;1.20;;;;;;;18.72;44.06;99605.37;4435787;32;20127;-71
2022/01/02 11:39:09;;;;;;;11.38;1.42;;;;;;;19.44;42.39;99588.78;3982330;32;15021708;-70
2022/01/02 11:44:13;;;;;;;12.55;1.55;;;;;;;19.89;41.88;99592.94;3977904;32;15034604;-71
2022/01/02 11:49:44;;;;;;;6.95;1.30;;;;;;;20.58;39.71;99568.44;3996599;31;15017028;-70
2022/01/02 11:54:48;;;;;;;12.15;1.42;;;;;;;19.61;41.46;99569.50;3979252;32;15022639;-71
2022/01/02 12:18:11;;;;;;;9.90;1.60;;;;;;;19.09;42.68;99549.53;3979389;32;15023998;-70
2022/01/02 12:34:17;;;;;;;8.00;1.77;;;;;;;19.48;42.52;99515.88;3980739;32;15022446;-70
2022/01/02 12:36:44;;;;;;;11.50;1.62;;;;;;;19.48;42.52;99515.88;4429231;32;20037;-70
2022/01/02 12:39:16;;;;;;;12.43;2.10;;;;;;;19.01;43.44;99502.91;4432494;32;20084;-70
2022/01/02 12:41:44;;;;;;;14.75;2.22;;;;;;;19.26;42.89;99523.75;4429371;32;20057;-70
2022/01/02 12:44:22;;;;;;;13.95;2.17;;;;;;;19.01;43.32;99516.38;4429244;32;20072;-70
2022/01/02 12:46:53;;;;;;;13.25;1.80;;;;;;;18.66;43.95;99510.59;4432313;32;20106;-70